x

Ilm3 - 27 Miles Se Of Wrightsville Beach, Nc (41037) Weather Station

11:08pm - Tue 26th Jul 2016 All times are EDT. -4 hours from GMT.

  • Wind
    18mph, 22mph gusts
  • Sea Temp 84°f
  • Air Temp 84°f
  • Sea Pressure 1016.1mb
  • Ilm3 - 27 Miles Se Of Wrightsville Beach, Nc
  • Ilm3 - 27 Miles Se Of Wrightsville Beach, Nc

More Historic Weather Station data

Upgrade to MSW Pro to gain access to the past 30 days of data for over 8000 Wavebouys and Weather Stations around the globe.

Join Pro

Comparision Forecast

View Surf forecast
   
Tue 07/26 11:08pm 18 22 mph 1016.1mb 84f 84f
10:08pm 16 20 mph 1016mb 84f 84f
9:08pm 16 20 mph 1015.8mb 84f 84f
8:08pm 18 22 mph 1015.8mb 84f 84f
7:08pm 16 20 mph 1015.3mb 84f 85f
6:08pm 18 25 mph 1015mb 84f 85f
5:08pm 20 25 mph 1014.9mb 84f 85f
4:08pm 18 22 mph 1015.7mb 84f 85f
3:08pm 16 20 mph 1016.2mb 84f 84f
2:08pm 13 20 mph 1016.9mb 84f 84f
1:08pm 16 22 mph 1017.4mb 84f 84f
12:08pm 16 20 mph 1017.9mb 84f 84f
11:08am 18 22 mph 1018.1mb 84f 84f
10:08am 18 22 mph 1017.8mb 84f 84f
9:08am 16 20 mph 1017.9mb 84f 84f
8:08am 16 20 mph 1017.9mb 84f 84f
7:08am 16 20 mph 1017.6mb 84f 83f
6:08am 16 22 mph 1017.3mb 84f 83f
5:08am 18 22 mph 1016.8mb 84f 83f
4:08am 18 22 mph 1016.6mb 84f 84f
3:08am 18 25 mph 1016.7mb 84f 84f
2:08am 18 22 mph 1017.2mb 85f 84f
1:08am 18 22 mph 1017.9mb 85f 84f
12:08am 18 22 mph 1017.9mb 85f 84f
Mon 07/25 11:08pm 18 22 mph 1017.6mb 85f 84f
10:08pm 18 22 mph 1017.6mb 85f 84f
9:08pm 16 20 mph 1017.1mb 85f 85f
8:08pm 16 22 mph 1016.7mb 85f 85f
7:08pm 16 20 mph 1016.7mb 85f 85f
6:08pm 16 20 mph 1016.5mb 85f 85f
5:08pm 16 18 mph 1016.9mb 85f 85f
4:08pm 13 18 mph 1017.2mb 85f 85f
3:08pm 13 18 mph 1017.8mb 85f 85f
2:08pm 13 16 mph 1018.2mb 85f 85f
1:08pm 11 16 mph 1018.8mb 85f 85f
12:08pm 13 18 mph 1019.1mb 85f 84f
11:08am 11 13 mph 1019.1mb 84f 84f
10:08am 4 9 mph 1017.9mb 84f 81f
9:08am 7 9 mph 1019.2mb 84f 84f
8:08am 9 16 mph 1019mb 84f 84f
7:08am 11 16 mph 1018.7mb 84f 84f
6:08am 11 16 mph 1018.4mb 84f 84f
5:08am 11 16 mph 1017.6mb 84f 84f
4:08am 13 16 mph 1017.5mb 85f 84f
3:08am 13 18 mph 1017.8mb 85f 84f
2:08am 13 16 mph 1017.9mb 85f 84f
1:08am 13 18 mph 1017.8mb 85f 84f
12:08am 13 16 mph 1018mb 85f 84f
Sun 07/24 11:08pm 13 18 mph 1018.2mb 85f 84f
10:08pm 13 18 mph 1017.8mb 85f 84f
9:08pm 13 18 mph 1017.4mb 85f 84f
8:08pm 13 16 mph 1016.9mb 85f 84f
7:08pm 11 16 mph 1017mb 85f 85f
6:08pm 13 16 mph 1016.9mb 85f 85f
5:08pm 11 13 mph 1016.9mb 85f 85f
4:08pm 11 16 mph 1017mb 85f 85f
3:08pm 11 13 mph 1017.6mb 85f 86f
2:08pm 9 13 mph 1017.9mb 85f 85f
1:08pm 9 13 mph 1017.8mb 85f 85f
12:08pm 11 13 mph 1017.9mb 85f 85f
11:08am 11 13 mph 1017.8mb 85f 85f
10:08am 11 13 mph 1017.4mb 85f 85f
9:08am 9 11 mph 1017.5mb 84f 85f
8:08am 9 11 mph 1017.1mb 84f 85f
7:08am 11 13 mph 1016.5mb 84f 84f
6:08am 11 13 mph 1016.5mb 84f 84f
5:08am 9 13 mph 1016.5mb 84f 84f
4:08am 11 16 mph 1016.5mb 84f 84f
3:08am 13 16 mph 1016.8mb 85f 84f
2:08am 11 16 mph 1016.7mb 85f 84f
1:08am 13 18 mph 1016.5mb 85f 84f
12:08am 13 16 mph 1016.6mb 85f 84f
Sat 07/23 11:08pm 11 16 mph 1016.4mb 85f 84f
10:08pm 11 13 mph 1016.3mb 85f 84f
9:08pm 9 11 mph 1015.9mb 85f 84f
8:08pm 13 16 mph 1015.6mb 85f 84f
7:08pm 11 13 mph 1015.4mb 85f 84f
6:08pm 11 16 mph 1015.3mb 85f 84f
5:08pm 13 16 mph 1015.8mb 85f 84f
4:08pm 9 13 mph 1015.8mb 85f 84f
3:08pm 7 11 mph 1016.2mb 85f 84f
2:08pm 7 9 mph 1016.6mb 85f 84f
1:08pm 9 13 mph 1016.8mb 85f 83f
12:08pm 11 13 mph 1017.1mb 85f 83f
11:08am 7 11 mph 1017.5mb 85f 83f
10:08am 11 13 mph 1017.1mb 84f 83f
9:08am 9 11 mph 1016.8mb 84f 85f
7:08am 9 11 mph 1016.5mb 84f 84f
6:08am 9 11 mph 1016.4mb 84f 84f
5:08am 9 13 mph 1016.1mb 85f 84f